createdAt,value
2023-04-20T00:00:56.649Z,130.83
2023-04-20T00:03:27.302Z,140.13
2023-04-20T00:05:55.345Z,134.03
2023-04-20T00:08:23.095Z,128.53
2023-04-20T00:10:50.896Z,127.00
2023-04-20T00:13:18.605Z,130.80
2023-04-20T00:15:46.347Z,136.03
2023-04-20T00:18:14.214Z,127.17
2023-04-20T00:20:43.260Z,132.07
2023-04-20T00:23:11.094Z,116.57
2023-04-20T00:25:38.903Z,121.80
2023-04-20T00:28:06.539Z,122.47
2023-04-20T00:30:34.895Z,130.80
2023-04-20T00:33:03.545Z,135.83
2023-04-20T00:35:31.509Z,135.97
2023-04-20T00:38:00.704Z,136.63
2023-04-20T00:40:28.612Z,124.40
2023-04-20T00:42:57.375Z,120.07
2023-04-20T00:45:25.427Z,128.30
2023-04-20T00:47:53.110Z,125.57
2023-04-20T00:50:21.949Z,120.37
2023-04-20T00:52:49.666Z,124.23
2023-04-20T00:55:20.780Z,123.80
2023-04-20T00:57:48.626Z,118.67
2023-04-20T01:00:16.747Z,119.80
2023-04-20T01:02:44.695Z,124.13
2023-04-20T01:05:12.623Z,118.73
2023-04-20T01:07:40.733Z,109.17
2023-04-20T01:10:09.617Z,117.57
2023-04-20T01:12:42.079Z,116.87
2023-04-20T01:15:12.133Z,112.93
2023-04-20T01:17:40.546Z,120.03
2023-04-20T01:20:12.764Z,116.43
2023-04-20T01:22:46.559Z,113.73
2023-04-20T01:25:14.929Z,117.43
2023-04-20T01:27:43.079Z,107.80
2023-04-20T01:30:12.615Z,117.07
2023-04-20T01:32:41.312Z,125.87
2023-04-20T01:35:10.406Z,123.53
2023-04-20T01:37:39.325Z,123.07
2023-04-20T01:40:10.282Z,118.33
2023-04-20T01:42:37.997Z,122.57
2023-04-20T01:45:06.893Z,118.97
2023-04-20T01:47:36.576Z,113.97
2023-04-20T01:50:04.747Z,119.90
2023-04-20T01:52:32.389Z,117.60
2023-04-20T01:55:00.043Z,125.40
2023-04-20T01:57:29.084Z,110.43
2023-04-20T01:59:56.812Z,124.43
2023-04-20T02:02:24.589Z,120.67
2023-04-20T02:04:53.274Z,120.33
2023-04-20T02:07:21.249Z,113.13
2023-04-20T02:09:48.880Z,121.97
2023-04-20T02:12:16.554Z,117.63
2023-04-20T02:14:45.566Z,119.93
2023-04-20T02:17:13.866Z,106.57
2023-04-20T02:19:41.621Z,118.13
2023-04-20T02:22:09.255Z,119.03
2023-04-20T02:24:36.933Z,120.23
2023-04-20T02:27:04.896Z,118.17
2023-04-20T02:29:32.916Z,117.57
2023-04-20T02:32:02.071Z,123.80
2023-04-20T02:34:29.717Z,118.20
2023-04-20T02:36:57.962Z,128.83
2023-04-20T02:39:26.084Z,127.30
2023-04-20T02:41:55.864Z,134.67
2023-04-20T02:44:24.550Z,126.80
2023-04-20T02:46:52.472Z,136.60
2023-04-20T02:49:22.798Z,128.57
2023-04-20T02:51:50.731Z,124.47
2023-04-20T02:54:18.433Z,126.80
2023-04-20T02:56:46.326Z,122.57
2023-04-20T02:59:20.390Z,120.73
2023-04-20T03:02:06.563Z,122.03
2023-04-20T03:04:35.767Z,133.43
2023-04-20T03:07:11.646Z,134.80
2023-04-20T03:09:40.649Z,134.70
2023-04-20T03:12:35.915Z,131.20
2023-04-20T03:15:06.173Z,133.20
2023-04-20T03:18:03.814Z,126.17
2023-04-20T03:20:33.380Z,140.07
2023-04-20T03:23:01.333Z,141.70
2023-04-20T03:25:29.513Z,136.83
2023-04-20T03:27:59.705Z,153.50
2023-04-20T03:30:27.996Z,142.93
2023-04-20T03:33:10.221Z,132.80
2023-04-20T03:35:40.087Z,135.37
2023-04-20T03:38:07.836Z,123.83
2023-04-20T03:40:35.901Z,136.30
2023-04-20T03:43:03.595Z,137.10
2023-04-20T03:45:31.310Z,135.17
2023-04-20T03:47:58.967Z,142.73
2023-04-20T03:50:27.880Z,140.77
2023-04-20T03:52:56.878Z,138.23
2023-04-20T03:55:24.673Z,132.63
2023-04-20T03:57:59.492Z,148.30
2023-04-20T04:00:31.203Z,138.93
2023-04-20T04:03:07.615Z,137.30
2023-04-20T04:05:35.491Z,140.50
2023-04-20T04:08:06.079Z,132.00
2023-04-20T04:10:34.047Z,135.90
2023-04-20T04:13:01.669Z,135.47
2023-04-20T04:15:29.728Z,134.30
2023-04-20T04:18:05.489Z,133.93
2023-04-20T04:20:35.089Z,130.87
2023-04-20T04:23:02.906Z,144.57
2023-04-20T04:25:52.629Z,130.77
2023-04-20T04:28:24.972Z,132.43
2023-04-20T04:31:06.016Z,138.80
2023-04-20T04:33:35.728Z,134.20
2023-04-20T04:36:07.324Z,138.80
2023-04-20T04:38:54.875Z,124.40
2023-04-20T04:41:24.361Z,136.60
2023-04-20T04:43:53.396Z,143.53
2023-04-20T04:46:27.745Z,129.40
2023-04-20T04:49:00.870Z,136.33
2023-04-20T04:51:28.657Z,136.70
2023-04-20T04:53:56.578Z,146.83
2023-04-20T04:56:25.666Z,146.57
2023-04-20T04:58:53.329Z,142.00
2023-04-20T05:01:21.377Z,135.93
2023-04-20T05:03:49.211Z,144.37
2023-04-20T05:06:16.983Z,132.97
2023-04-20T05:08:44.641Z,143.37
2023-04-20T05:11:12.278Z,142.90
2023-04-20T05:13:41.539Z,139.97
2023-04-20T05:16:09.292Z,146.07
2023-04-20T05:18:36.966Z,138.63
2023-04-20T05:21:04.947Z,143.70
2023-04-20T05:23:33.213Z,145.83
2023-04-20T05:26:00.840Z,136.50
2023-04-20T05:28:28.492Z,138.97
2023-04-20T05:30:57.441Z,124.43
2023-04-20T05:33:25.979Z,139.37
2023-04-20T05:35:57.429Z,153.23
2023-04-20T05:38:25.370Z,149.67
2023-04-20T05:40:53.196Z,139.67
2023-04-20T05:43:20.878Z,159.63
2023-04-20T05:45:49.664Z,152.03
2023-04-20T05:48:18.643Z,148.57
2023-04-20T05:50:46.702Z,149.03
2023-04-20T05:53:14.351Z,147.43
2023-04-20T05:55:42.011Z,145.47
2023-04-20T05:58:09.631Z,161.10
2023-04-20T06:00:37.250Z,161.50
2023-04-20T06:03:05.467Z,155.33
2023-04-20T06:05:34.799Z,152.87
2023-04-20T06:08:02.411Z,155.07
2023-04-20T06:10:32.396Z,149.07
2023-04-20T06:13:00.105Z,162.63
2023-04-20T06:15:27.793Z,160.73
2023-04-20T06:17:55.557Z,164.63
2023-04-20T06:20:23.765Z,149.53
2023-04-20T06:22:53.031Z,155.60
2023-04-20T06:25:20.659Z,159.47
2023-04-20T06:27:49.607Z,166.73
2023-04-20T06:30:18.365Z,155.93
2023-04-20T06:32:46.113Z,160.23
2023-04-20T06:35:13.784Z,168.13
2023-04-20T06:37:41.423Z,171.30
2023-04-20T06:40:10.653Z,165.73
2023-04-20T06:42:38.566Z,161.23
2023-04-20T06:45:07.456Z,172.90
2023-04-20T06:47:35.484Z,165.43
2023-04-20T06:50:07.057Z,167.77
2023-04-20T06:52:34.747Z,168.17
2023-04-20T06:55:02.353Z,171.43
2023-04-20T06:57:31.488Z,179.03
2023-04-20T06:59:59.741Z,177.37
2023-04-20T07:02:28.402Z,189.00
2023-04-20T07:05:02.371Z,180.43
2023-04-20T07:07:30.069Z,187.80
2023-04-20T07:09:57.704Z,201.37
2023-04-20T07:12:25.362Z,197.33
2023-04-20T07:14:54.772Z,192.57
2023-04-20T07:17:22.497Z,193.90
2023-04-20T07:19:50.712Z,215.90
2023-04-20T07:22:18.352Z,219.37
2023-04-20T07:24:45.979Z,220.17
2023-04-20T07:27:13.634Z,213.80
2023-04-20T07:29:41.304Z,221.07
2023-04-20T07:32:10.395Z,213.50
2023-04-20T07:34:38.046Z,212.80
2023-04-20T07:37:05.669Z,226.90
2023-04-20T07:39:33.410Z,227.73
2023-04-20T07:42:03.587Z,215.33
2023-04-20T07:44:31.331Z,204.23
2023-04-20T07:46:59.086Z,204.40
2023-04-20T07:49:28.175Z,226.13
2023-04-20T07:52:06.006Z,217.33
2023-04-20T07:54:40.743Z,215.67
2023-04-20T07:57:09.393Z,222.57
2023-04-20T07:59:37.195Z,203.57
2023-04-20T08:02:04.966Z,209.93
2023-04-20T08:04:34.395Z,221.20
2023-04-20T08:07:02.190Z,228.13
2023-04-20T08:09:29.986Z,209.30
2023-04-20T08:11:57.690Z,221.57
2023-04-20T08:14:25.417Z,230.63
2023-04-20T08:16:53.027Z,215.10
2023-04-20T08:19:20.772Z,211.18
2023-04-20T08:21:49.994Z,230.05
2023-04-20T08:24:17.934Z,223.82
2023-04-20T08:26:45.815Z,226.70
2023-04-20T08:29:13.500Z,203.07
2023-04-20T08:31:41.245Z,204.98
2023-04-20T08:34:09.006Z,195.15
2023-04-20T08:36:37.275Z,195.63
2023-04-20T08:39:10.784Z,206.23
2023-04-20T08:41:38.750Z,197.45
2023-04-20T08:44:08.091Z,197.50
2023-04-20T08:46:36.531Z,186.90
2023-04-20T08:49:04.440Z,197.52
2023-04-20T08:51:33.424Z,190.55
2023-04-20T08:54:06.299Z,193.07
2023-04-20T08:56:40.672Z,188.35
2023-04-20T08:59:10.424Z,191.27
2023-04-20T09:01:41.467Z,189.80
2023-04-20T09:04:20.084Z,196.77
2023-04-20T09:06:50.161Z,189.23
2023-04-20T09:09:18.352Z,194.75
2023-04-20T09:11:47.520Z,185.27
2023-04-20T09:14:18.314Z,183.13
2023-04-20T09:16:51.291Z,180.43
2023-04-20T09:19:23.533Z,174.93
2023-04-20T09:21:52.391Z,181.07
2023-04-20T09:24:21.395Z,184.35
2023-04-20T09:26:50.428Z,170.15
2023-04-20T09:29:19.111Z,175.13
2023-04-20T09:31:48.157Z,177.85
2023-04-20T09:34:16.934Z,170.82
2023-04-20T09:36:46.001Z,181.23
2023-04-20T09:39:16.410Z,182.88
2023-04-20T09:41:44.918Z,192.75
2023-04-20T09:44:15.103Z,181.82
2023-04-20T09:46:44.283Z,169.88
2023-04-20T09:49:14.673Z,174.95
2023-04-20T09:51:45.370Z,192.68
2023-04-20T09:54:14.247Z,175.00
2023-04-20T09:56:42.460Z,181.90
2023-04-20T09:59:10.209Z,187.60
2023-04-20T10:01:39.285Z,181.40
2023-04-20T10:04:09.286Z,181.85
2023-04-20T10:06:38.204Z,178.07
2023-04-20T10:09:07.352Z,168.57
2023-04-20T10:11:48.929Z,154.95
2023-04-20T10:14:22.962Z,154.07
2023-04-20T10:17:01.980Z,157.23
2023-04-20T10:19:40.693Z,158.00
2023-04-20T10:22:08.859Z,161.30
2023-04-20T10:24:38.080Z,170.30
2023-04-20T10:27:17.391Z,175.40
2023-04-20T10:29:45.161Z,156.90
2023-04-20T10:32:24.607Z,162.52
2023-04-20T10:35:04.657Z,147.70
2023-04-20T10:37:32.574Z,155.02
2023-04-20T10:40:00.994Z,156.43
2023-04-20T10:42:29.634Z,148.00
2023-04-20T10:44:57.459Z,147.27
2023-04-20T10:47:30.578Z,144.23
2023-04-20T10:50:07.565Z,134.43
2023-04-20T10:52:36.530Z,128.48
2023-04-20T10:55:04.691Z,136.57
2023-04-20T10:57:32.477Z,141.77
2023-04-20T11:00:00.233Z,140.43
2023-04-20T11:02:29.400Z,138.77
2023-04-20T11:05:00.937Z,129.32
2023-04-20T11:07:28.740Z,118.20
2023-04-20T11:09:57.490Z,136.55
2023-04-20T11:12:25.172Z,129.15
2023-04-20T11:14:54.343Z,131.35
2023-04-20T11:17:31.766Z,123.72
2023-04-20T11:20:10.863Z,127.13
2023-04-20T11:22:39.940Z,123.18
2023-04-20T11:25:09.227Z,133.85
2023-04-20T11:27:37.995Z,128.80
2023-04-20T11:30:07.994Z,124.22
2023-04-20T11:32:38.081Z,131.20
2023-04-20T11:35:10.793Z,129.68
2023-04-20T11:37:47.375Z,127.50
2023-04-20T11:40:15.279Z,138.07
2023-04-20T11:42:43.081Z,125.00
2023-04-20T11:45:11.822Z,131.52
2023-04-20T11:47:41.488Z,120.75
2023-04-20T11:50:11.603Z,125.07
2023-04-20T11:52:39.254Z,124.88
2023-04-20T11:55:08.242Z,134.00
2023-04-20T11:57:36.074Z,134.38
2023-04-20T12:00:04.296Z,128.65
2023-04-20T12:02:41.810Z,139.63
2023-04-20T12:05:12.142Z,134.27
2023-04-20T12:07:39.958Z,141.18
2023-04-20T12:10:09.287Z,140.13
2023-04-20T12:12:38.127Z,124.18
2023-04-20T12:15:07.504Z,137.70
2023-04-20T12:17:35.178Z,136.75
2023-04-20T12:20:02.966Z,137.00
2023-04-20T12:22:31.943Z,130.63
2023-04-20T12:25:00.333Z,131.77
2023-04-20T12:27:27.951Z,126.30
2023-04-20T12:29:56.020Z,137.45
2023-04-20T12:32:23.773Z,139.75
2023-04-20T12:34:51.490Z,135.43
2023-04-20T12:37:20.172Z,123.03
2023-04-20T12:39:49.150Z,129.73
2023-04-20T12:42:16.943Z,132.20
2023-04-20T12:44:44.611Z,131.55
2023-04-20T12:47:13.461Z,127.38
2023-04-20T12:49:41.250Z,156.52
2023-04-20T12:52:08.944Z,158.93
2023-04-20T12:54:36.618Z,166.00
2023-04-20T12:57:05.730Z,166.82
2023-04-20T12:59:33.403Z,159.13
2023-04-20T13:02:01.126Z,166.32
2023-04-20T13:04:29.096Z,163.32
2023-04-20T13:06:56.831Z,155.65
2023-04-20T13:09:26.969Z,148.20
2023-04-20T13:11:55.026Z,149.45
2023-04-20T13:14:23.991Z,136.20
2023-04-20T13:16:54.411Z,131.60
2023-04-20T13:19:23.134Z,127.43
2023-04-20T13:21:50.795Z,114.78
2023-04-20T13:24:19.011Z,124.07
2023-04-20T13:26:46.814Z,116.95
2023-04-20T13:29:14.843Z,121.25
2023-04-20T13:31:44.340Z,118.50
2023-04-20T13:34:11.988Z,114.93
2023-04-20T13:36:39.703Z,115.70
2023-04-20T13:39:07.834Z,108.55
2023-04-20T13:41:35.501Z,116.53
2023-04-20T13:44:03.943Z,122.40
2023-04-20T13:46:32.221Z,128.52
2023-04-20T13:49:01.258Z,122.72
2023-04-20T13:51:28.889Z,128.13
2023-04-20T13:53:56.496Z,127.68
2023-04-20T13:56:24.176Z,132.00
2023-04-20T13:58:51.843Z,144.23
2023-04-20T14:01:19.559Z,137.15
2023-04-20T14:03:47.392Z,148.80
2023-04-20T14:06:16.483Z,154.93
2023-04-20T14:08:44.186Z,149.70
2023-04-20T14:11:12.212Z,157.43
2023-04-20T14:13:39.953Z,153.93
2023-04-20T14:16:10.266Z,165.60
2023-04-20T14:18:38.061Z,148.23
2023-04-20T14:21:06.148Z,160.10
2023-04-20T14:23:35.205Z,156.38
2023-04-20T14:26:03.843Z,150.48
2023-04-20T14:28:33.283Z,157.27
2023-04-20T14:31:02.656Z,154.60
2023-04-20T14:33:30.817Z,149.57
2023-04-20T14:35:58.483Z,161.32
2023-04-20T14:38:26.284Z,164.88
2023-04-20T14:40:55.321Z,159.60
2023-04-20T14:43:23.050Z,157.93
2023-04-20T14:45:51.089Z,157.10
2023-04-20T14:48:18.875Z,157.75
2023-04-20T14:50:46.525Z,161.00
2023-04-20T14:53:14.693Z,148.98
2023-04-20T14:55:42.298Z,151.95
2023-04-20T14:58:11.302Z,153.70
2023-04-20T15:00:38.952Z,157.80
2023-04-20T15:03:06.779Z,160.20
2023-04-20T15:05:35.207Z,174.45
2023-04-20T15:08:03.321Z,148.02
2023-04-20T15:10:31.387Z,144.75
2023-04-20T15:12:59.067Z,134.30
2023-04-20T15:15:37.662Z,148.07
2023-04-20T15:18:14.847Z,139.88
2023-04-20T15:20:42.615Z,140.57
2023-04-20T15:23:10.290Z,150.30
2023-04-20T15:25:37.893Z,156.15
2023-04-20T15:28:05.957Z,136.98
2023-04-20T15:30:35.018Z,141.45
2023-04-20T15:33:05.140Z,142.23
2023-04-20T15:35:33.430Z,152.82
2023-04-20T15:38:01.255Z,165.88
2023-04-20T15:40:28.893Z,172.82
2023-04-20T15:42:56.649Z,152.65
2023-04-20T15:45:24.556Z,151.32
2023-04-20T15:47:53.594Z,150.32
2023-04-20T15:50:21.245Z,158.18
2023-04-20T15:52:50.676Z,150.85
2023-04-20T15:55:18.491Z,143.35
2023-04-20T15:57:46.138Z,143.25
2023-04-20T16:00:15.066Z,142.35
2023-04-20T16:02:42.857Z,151.23
2023-04-20T16:05:12.063Z,146.85
2023-04-20T16:07:39.731Z,145.13
2023-04-20T16:10:09.000Z,148.10
2023-04-20T16:12:36.733Z,154.40
2023-04-20T16:15:05.426Z,158.93
2023-04-20T16:17:33.252Z,152.60
2023-04-20T16:20:00.911Z,154.18
2023-04-20T16:22:29.877Z,162.02
2023-04-20T16:24:58.177Z,160.98
2023-04-20T16:27:26.666Z,172.85
2023-04-20T16:29:54.374Z,165.10
2023-04-20T16:32:22.084Z,179.48
2023-04-20T16:34:49.799Z,174.60
2023-04-20T16:37:17.439Z,182.40
2023-04-20T16:39:47.085Z,173.02
2023-04-20T16:42:14.730Z,196.20
2023-04-20T16:44:42.357Z,167.40
2023-04-20T16:47:10.046Z,177.40
2023-04-20T16:49:37.809Z,180.27
2023-04-20T16:52:05.427Z,184.98
2023-04-20T16:54:33.094Z,179.75
2023-04-20T16:57:02.295Z,206.63
2023-04-20T16:59:29.928Z,194.95
2023-04-20T17:01:57.774Z,184.32
2023-04-20T17:04:25.495Z,190.70
2023-04-20T17:06:53.817Z,199.73
2023-04-20T17:09:21.420Z,205.73
2023-04-20T17:11:49.043Z,205.47
2023-04-20T17:14:18.226Z,214.77
2023-04-20T17:16:46.123Z,206.17
2023-04-20T17:19:13.884Z,209.10
2023-04-20T17:21:41.585Z,221.50
2023-04-20T17:24:09.203Z,211.63
2023-04-20T17:26:36.910Z,228.33
2023-04-20T17:29:04.701Z,223.50
2023-04-20T17:31:34.267Z,219.37
2023-04-20T17:34:02.006Z,221.03
2023-04-20T17:36:29.693Z,225.10
2023-04-20T17:38:57.304Z,224.57
2023-04-20T17:41:24.935Z,229.10
2023-04-20T17:43:52.684Z,225.70
2023-04-20T17:46:20.394Z,226.77
2023-04-20T17:48:49.393Z,218.13
2023-04-20T17:51:17.044Z,214.83
2023-04-20T17:53:44.823Z,233.57
2023-04-20T17:56:12.631Z,236.97
2023-04-20T17:58:40.270Z,226.37
2023-04-20T18:01:07.997Z,217.43
2023-04-20T18:03:35.928Z,223.77
2023-04-20T18:06:05.436Z,225.33
2023-04-20T18:08:34.366Z,227.73
2023-04-20T18:11:03.089Z,230.90
2023-04-20T18:13:30.999Z,222.23
2023-04-20T18:15:59.498Z,213.00
2023-04-20T18:18:27.192Z,235.47
2023-04-20T18:20:54.887Z,234.37
2023-04-20T18:23:24.337Z,249.23
2023-04-20T18:25:53.669Z,231.93
2023-04-20T18:28:21.446Z,236.73
2023-04-20T18:30:49.406Z,222.50
2023-04-20T18:33:17.200Z,234.93
2023-04-20T18:35:45.738Z,228.90
2023-04-20T18:38:13.455Z,217.53
2023-04-20T18:40:42.559Z,235.73
2023-04-20T18:43:10.347Z,224.73
2023-04-20T18:45:38.002Z,227.80
2023-04-20T18:48:06.522Z,227.53
2023-04-20T18:50:34.454Z,223.87
2023-04-20T18:53:02.132Z,238.73
2023-04-20T18:55:29.830Z,223.90
2023-04-20T18:57:58.932Z,224.83
2023-04-20T19:00:26.821Z,216.80
2023-04-20T19:02:54.603Z,226.10
2023-04-20T19:05:22.568Z,219.47
2023-04-20T19:07:50.226Z,213.43
2023-04-20T19:10:17.890Z,208.93
2023-04-20T19:12:45.614Z,216.20
2023-04-20T19:15:14.981Z,220.57
2023-04-20T19:17:42.900Z,230.93
2023-04-20T19:20:11.289Z,215.13
2023-04-20T19:22:38.950Z,210.93
2023-04-20T19:25:07.706Z,207.53
2023-04-20T19:27:35.358Z,225.63
2023-04-20T19:30:03.464Z,206.20
2023-04-20T19:32:32.470Z,208.23
2023-04-20T19:35:00.393Z,218.73
2023-04-20T19:37:28.430Z,223.17
2023-04-20T19:39:56.129Z,220.70
2023-04-20T19:42:23.718Z,229.27
2023-04-20T19:44:51.443Z,206.17
2023-04-20T19:47:20.237Z,211.63
2023-04-20T19:49:49.408Z,204.10
2023-04-20T19:52:17.099Z,203.43
2023-04-20T19:54:44.735Z,202.10
2023-04-20T19:57:12.386Z,210.77
2023-04-20T19:59:41.653Z,219.50
2023-04-20T20:02:09.360Z,213.47
2023-04-20T20:04:39.272Z,206.90
2023-04-20T20:07:08.414Z,210.67
2023-04-20T20:09:36.101Z,225.37
2023-04-20T20:12:04.768Z,220.30
2023-04-20T20:14:32.454Z,207.27
2023-04-20T20:17:00.178Z,216.47
2023-04-20T20:19:27.779Z,205.47
2023-04-20T20:21:55.506Z,204.57
2023-04-20T20:24:25.135Z,208.90
2023-04-20T20:26:52.874Z,224.83
2023-04-20T20:29:20.679Z,229.17
2023-04-20T20:31:48.625Z,220.67
2023-04-20T20:34:16.447Z,221.63
2023-04-20T20:36:46.272Z,215.07
2023-04-20T20:39:14.367Z,238.20
2023-04-20T20:41:43.404Z,236.50
2023-04-20T20:44:11.219Z,215.57
2023-04-20T20:46:39.499Z,227.43
2023-04-20T20:49:07.234Z,216.30
2023-04-20T20:51:34.927Z,240.60
2023-04-20T20:54:02.552Z,231.10
2023-04-20T20:56:30.174Z,240.20
2023-04-20T20:58:59.137Z,235.63
2023-04-20T21:01:27.028Z,232.10
2023-04-20T21:03:55.163Z,231.17
2023-04-20T21:06:23.251Z,240.97
2023-04-20T21:08:50.896Z,244.37
2023-04-20T21:11:18.488Z,252.33
2023-04-20T21:13:46.139Z,235.83
2023-04-20T21:16:15.122Z,224.60
2023-04-20T21:18:42.813Z,230.27
2023-04-20T21:21:13.092Z,232.60
2023-04-20T21:23:40.787Z,237.50
2023-04-20T21:26:08.426Z,226.40
2023-04-20T21:28:36.033Z,224.83
2023-04-20T21:31:03.713Z,218.50
2023-04-20T21:33:34.524Z,226.47
2023-04-20T21:36:02.271Z,222.27
2023-04-20T21:38:29.907Z,217.97
2023-04-20T21:40:57.486Z,216.23
2023-04-20T21:43:25.194Z,212.83
2023-04-20T21:45:53.019Z,226.20
2023-04-20T21:48:20.705Z,219.40
2023-04-20T21:50:49.682Z,217.73
2023-04-20T21:53:17.421Z,221.73
2023-04-20T21:55:45.027Z,230.20
2023-04-20T21:58:12.665Z,225.90
2023-04-20T22:00:40.434Z,216.23
2023-04-20T22:03:08.300Z,226.07
2023-04-20T22:05:36.387Z,234.03
2023-04-20T22:08:05.824Z,226.60
2023-04-20T22:10:33.520Z,218.00
2023-04-20T22:13:01.167Z,218.97
2023-04-20T22:15:29.008Z,227.03
2023-04-20T22:18:00.466Z,227.70
2023-04-20T22:20:28.508Z,232.17
2023-04-20T22:22:57.284Z,217.60
2023-04-20T22:25:26.853Z,230.53
2023-04-20T22:27:54.816Z,228.37
2023-04-20T22:30:22.733Z,224.77
2023-04-20T22:32:50.528Z,237.47
2023-04-20T22:35:18.215Z,225.63
2023-04-20T22:37:45.928Z,238.83
2023-04-20T22:40:14.133Z,234.43
2023-04-20T22:42:43.119Z,211.77
2023-04-20T22:45:11.910Z,216.77
2023-04-20T22:47:39.917Z,221.33
2023-04-20T22:50:09.565Z,226.73
2023-04-20T22:52:38.437Z,206.90
2023-04-20T22:55:07.026Z,203.47
2023-04-20T22:57:34.819Z,198.87
2023-04-20T23:00:09.954Z,218.90
2023-04-20T23:02:38.074Z,211.63
2023-04-20T23:05:06.517Z,188.47
2023-04-20T23:07:34.489Z,209.90
2023-04-20T23:10:02.701Z,202.87
2023-04-20T23:12:30.384Z,192.83
2023-04-20T23:15:00.436Z,193.20
2023-04-20T23:17:29.791Z,192.77
2023-04-20T23:19:57.582Z,196.47
2023-04-20T23:22:25.848Z,184.63
2023-04-20T23:24:53.521Z,176.73
2023-04-20T23:27:21.236Z,184.10
2023-04-20T23:29:48.839Z,191.53
2023-04-20T23:32:16.500Z,177.27
2023-04-20T23:34:45.954Z,178.07
2023-04-20T23:37:13.574Z,187.07
2023-04-20T23:39:41.233Z,174.93
2023-04-20T23:42:08.880Z,180.50
2023-04-20T23:44:36.664Z,187.77
2023-04-20T23:47:04.896Z,170.47
2023-04-20T23:49:32.549Z,186.23
2023-04-20T23:52:01.595Z,176.97
2023-04-20T23:54:29.804Z,176.27
2023-04-20T23:56:58.962Z,196.23
2023-04-20T23:59:26.730Z,182.43
